Hauptseite
METAR-TAF:

METAR-TAF

Flughäfen :

Hagåtña, Guam, Vereinigte Staaten

Flughafen Antonio B. Won Pat

Breite: 13-29N, Länge: 144-48E, Höhe: 91 m

Beobachtung

Neuester Wetterbericht von vor 1 Stunde und 3 Minuten, um 08:54 UTC
Wind 8 kt aus Ost
Temperatur 27°C
Luftfeuchtigkeit 84%
Luftdruck 1011 hPa
Sichtweite: 16.1 km
Aufgelockert bewölkt in der Höhe von 2100 ft

METAR: PGUM 250854Z 09008KT 10SM SCT021 27/24 A2986 RMK AO2 SLP103 T02720239 53010 $

Zeit: 19:57 (09:57 UTC)

Prognose

Neuester Wetterbericht von vor 4 Stunden und 36 Minuten, um 05:21 UTC
Gültige Prognose vom 25 um 06 UTC bis 26 um 12 UTC
Wind 11 kt aus Ost
Sichtweite: 10 km
Aufgelockert bewölkt in der Höhe von 2500 ft
Schauer in der Nähe

TAF: PGUM 250521Z 2506/2612 09011KT P6SM VCSH SCT025

Wetterbeobachtungen und Prognosen von mehr als 4000 Flughäfen (METAR und TAF Bericht).

Die verfügbaren Stationen werden durch gelbe und rote Markierungen auf der Karte dargestellt.

Führen Sie die Maus auf sie, um den Namen der Station zu sehen.

Darauf klicken, um die Beobachtung von Wetterbeobachtungen und Prognosen zu sehen.

Um die Karte zu ändern : klicken Sie auf den grünen Tasten mit einem schwarzen Kreuz Zum Vergrößern, auf den grünen Button mit einem Gedankenstrich zu verkleinern, oder auf die grünen Pfeile für benachbarte Karten.


METAR-TAF: